Terminal Aerodrome Forecast
Issued by NWS

Home | Current Version | Previous Version | Text Only | Print | Product List | Glossary On
Versions: 1 2 3 4 5 6 7 8 9 10 11 12 13 14 15 16 17 18 19 20 21 22 23 24 25 26 27 28 29 30 31 32 33
000
FTUS45 KTWC 221100
TAFOLS
TAF
KOLS 221120Z 2212/2312 15005KT P6SM SCT120 BKN200
     FM221700 33008KT P6SM SCT120 BKN200
     FM222100 35005KT P6SM VCTS SCT120CB BKN200
     FM230100 07005KT P6SM SCT140 BKN200=

USA.gov is the U.S. government's official web portal to all federal, state and local government web resources and services.